Flight Track Log - Related Links

Times and Time Zones

All times are in EDT time to prevent confusion due to time zone crossing. See the EJA831 flight status page for this flight to view local times or setup timezone preferences in your user account.

Time Position Orientation Groundspeed Altitude Reporting Facility
EDT Latitude Longitude Course Direction KTS MPH feet Rate Location/Type
Sat 10:48:00 PM 36.4412 -104.6441 69° East  Level Estimated
Sat 10:49:00 PM 36.4636 -104.5324 76° East  Level Estimated
Sat 10:50:00 PM 36.4858 -104.4207 76° East  Level Estimated
Sat 10:51:00 PM 36.5080 -104.3089 76° East  Level Estimated
Sat 10:52:00 PM 36.5301 -104.1970 76° East  Level Estimated
Sat 10:53:00 PM 36.5520 -104.0851 76° East  Level Estimated
Sat 10:54:00 PM 36.5739 -103.9731 76° East  Level Estimated
Sat 10:55:00 PM 36.5956 -103.8610 76° East  Level Estimated
Sat 10:56:00 PM 36.6173 -103.7489 76° East  Level Estimated
Sat 10:57:00 PM 36.6388 -103.6367 77° East  Level Estimated
Sat 10:58:00 PM 36.6602 -103.5244 77° East  Level Estimated
Sat 10:59:00 PM 36.6816 -103.4121 77° East  Level Estimated
Sat 11:00:00 PM 36.7028 -103.2997 77° East  Level Estimated
Sat 11:01:00 PM 36.7239 -103.1873 77° East  Level Estimated
Sat 11:02:00 PM 36.7449 -103.0748 77° East  Level Estimated
Sat 11:03:00 PM 36.7658 -102.9622 77° East  Level Estimated
Sat 11:04:00 PM 36.7866 -102.8496 77° East  Level Estimated
Sat 11:05:00 PM 36.8073 -102.7369 77° East  Level Estimated
Sat 11:06:00 PM 36.8279 -102.6242 77° East  Level Estimated
Sat 11:07:00 PM 36.8484 -102.5114 77° East  Level Estimated
Sat 11:08:00 PM 36.8687 -102.3985 77° East  Level Estimated
Sat 11:09:00 PM 36.8890 -102.2856 77° East  Level Estimated
Sat 11:10:00 PM 36.9092 -102.1726 77° East  Level Estimated
Sat 11:11:00 PM 36.9292 -102.0595 77° East  Level Estimated
Sat 11:12:00 PM 36.9492 -101.9464 78° East  Level Estimated
Sat 11:13:00 PM 36.9690 -101.8333 78° East  Level Estimated
Sat 11:14:00 PM 36.9887 -101.7200 78° East  Level Estimated
Sat 11:15:00 PM 37.0084 -101.6068 78° East  Level Estimated
Sat 11:16:00 PM 37.0279 -101.4934 78° East  Level Estimated
Sat 11:17:00 PM 37.0473 -101.3800 78° East  Level Estimated
Sat 11:18:00 PM 37.0666 -101.2665 78° East  Level Estimated
Sat 11:19:00 PM 37.0858 -101.1530 78° East  Level Estimated
Sat 11:20:00 PM 37.1048 -101.0395 78° East  Level Estimated
Sat 11:21:00 PM 37.1238 -100.9258 78° East  Level Estimated
Sat 11:22:00 PM 37.1427 -100.8121 78° East  Level Estimated
Sat 11:23:00 PM 37.1614 -100.6984 78° East  Level Estimated
Sat 11:24:00 PM 37.1801 -100.5846 78° East  Level Estimated
Sat 11:25:00 PM 37.1986 -100.4707 78° East  Level Estimated
Sat 11:26:00 PM 37.2170 -100.3568 78° East  Level Estimated
Sat 11:27:00 PM 37.2354 -100.2429 79° East  Level Estimated
Sat 11:28:00 PM 37.2536 -100.1289 79° East  Level Estimated
Sat 11:29:00 PM 37.2717 -100.0148 79° East  Level Estimated
Sat 11:30:00 PM 37.2897 -99.9006 79° East  Level Estimated
Sat 11:31:00 PM 37.3076 -99.7865 79° East  Level Estimated
Sat 11:32:00 PM 37.3253 -99.6722 79° East  Level Estimated
Sat 11:33:00 PM 37.3430 -99.5579 79° East  Level Estimated
Sat 11:34:00 PM 37.3605 -99.4436 79° East  Level Estimated
Sat 11:35:00 PM 37.3780 -99.3292 79° East  Level Estimated
Sat 11:36:00 PM 37.3953 -99.2147 79° East  Level Estimated
Sat 11:37:00 PM 37.4126 -99.1002 79° East  Level Estimated
Sat 11:38:00 PM 37.4297 -98.9856 79° East  Level Estimated
Sat 11:39:00 PM 37.4467 -98.8710 79° East  Level Estimated
Sat 11:40:00 PM 37.4636 -98.7564 79° East  Level Estimated
Sat 11:41:00 PM 37.4803 -98.6417 80° East  Level Estimated
Sat 11:42:00 PM 37.4970 -98.5269 80° East  Level Estimated
Sat 11:43:00 PM 37.5136 -98.4121 80° East  Level Estimated
Sat 11:44:00 PM 37.5300 -98.2972 80° East  Level Estimated
Sat 11:45:00 PM 37.5463 -98.1823 80° East  Level Estimated
Sat 11:46:00 PM 37.5626 -98.0673 80° East  Level Estimated
Sat 11:47:00 PM 37.5787 -97.9523 80° East  Level Estimated
Sat 11:48:00 PM 37.5947 -97.8372 80° East  Level Estimated
Sat 11:49:00 PM 37.6106 -97.7221 80° East  Level Estimated
Sat 11:50:00 PM 37.6264 -97.6069 80° East  Level Estimated
Sat 11:51:00 PM 37.6420 -97.4917 80° East  Level Estimated
Sat 11:52:00 PM 37.6499 -97.4331 80° East  Level Estimated
Sat 11:53:00 PM 37.6499 -97.4331 North  Level Estimated
Sat 11:54:00 PM 37.6499 -97.4331 North  Level Estimated
Sat 11:55:00 PM 37.6499 -97.4331 North  Level Estimated
Sat 11:56:00 PM 37.6499 -97.4331 North  Level Estimated
Sat 11:57:00 PM 37.6499 -97.4331 North  Level Estimated
Sat 11:58:00 PM 37.6499 -97.4331 North  Level Estimated
Sat 11:59:00 PM 37.6499 -97.4331 North  Level Estimated
Sun 12:00:00 AM 37.6499 -97.4331 North  Level Estimated
Sun 12:01:00 AM 37.6499 -97.4331 North  Level Estimated
Sun 12:02:00 AM 37.6499 -97.4331 North  Level Estimated
Sun 12:03:00 AM 37.6499 -97.4331 North  Level Estimated
Sun 12:04:00 AM 37.6499 -97.4331 North  Level Estimated
Sun 12:05:00 AM 37.6499 -97.4331 North  Level Estimated
Sun 12:06:00 AM 37.6499 -97.4331 North  Level Estimated
Sun 12:07:00 AM 37.6499 -97.4331 North  Level Estimated

Login

Don't have an account? Register now (free) for customized features, flight alerts, and more!